sensor_id;sensor_type;location;lat;lon;timestamp;P1;durP1;ratioP1;P2;durP2;ratioP2
48161;SDS011;33950;48.154;16.316;2023-06-01T00:00:37;5.55;;;2.53;;
48161;SDS011;33950;48.154;16.316;2023-06-01T00:03:26;6.93;;;2.58;;
48161;SDS011;33950;48.154;16.316;2023-06-01T00:06:12;5.68;;;2.70;;
48161;SDS011;33950;48.154;16.316;2023-06-01T00:08:58;7.90;;;3.13;;
48161;SDS011;33950;48.154;16.316;2023-06-01T00:11:45;6.55;;;2.70;;
48161;SDS011;33950;48.154;16.316;2023-06-01T00:14:31;11.90;;;2.63;;
48161;SDS011;33950;48.154;16.316;2023-06-01T00:17:18;7.70;;;2.40;;
48161;SDS011;33950;48.154;16.316;2023-06-01T00:20:06;8.00;;;3.00;;
48161;SDS011;33950;48.154;16.316;2023-06-01T00:22:53;7.00;;;3.15;;
48161;SDS011;33950;48.154;16.316;2023-06-01T00:25:40;7.93;;;3.28;;
48161;SDS011;33950;48.154;16.316;2023-06-01T00:28:26;9.00;;;3.35;;
48161;SDS011;33950;48.154;16.316;2023-06-01T00:31:13;6.38;;;3.13;;
48161;SDS011;33950;48.154;16.316;2023-06-01T00:33:59;10.77;;;4.10;;
48161;SDS011;33950;48.154;16.316;2023-06-01T00:36:46;7.63;;;3.75;;
48161;SDS011;33950;48.154;16.316;2023-06-01T00:39:32;4.03;;;2.72;;
48161;SDS011;33950;48.154;16.316;2023-06-01T00:42:19;9.52;;;3.75;;
48161;SDS011;33950;48.154;16.316;2023-06-01T00:45:05;5.75;;;3.00;;
48161;SDS011;33950;48.154;16.316;2023-06-01T00:47:52;8.00;;;3.33;;
48161;SDS011;33950;48.154;16.316;2023-06-01T00:50:38;8.35;;;3.42;;
48161;SDS011;33950;48.154;16.316;2023-06-01T00:53:26;11.68;;;3.30;;
48161;SDS011;33950;48.154;16.316;2023-06-01T00:56:12;6.10;;;3.03;;
48161;SDS011;33950;48.154;16.316;2023-06-01T00:58:59;12.70;;;3.92;;
48161;SDS011;33950;48.154;16.316;2023-06-01T01:01:45;9.07;;;3.58;;
48161;SDS011;33950;48.154;16.316;2023-06-01T01:04:31;9.32;;;3.65;;
48161;SDS011;33950;48.154;16.316;2023-06-01T01:07:19;11.95;;;3.25;;
48161;SDS011;33950;48.154;16.316;2023-06-01T01:10:13;9.55;;;3.55;;
48161;SDS011;33950;48.154;16.316;2023-06-01T01:13:04;7.38;;;3.30;;
48161;SDS011;33950;48.154;16.316;2023-06-01T01:15:58;10.07;;;3.25;;
48161;SDS011;33950;48.154;16.316;2023-06-01T01:18:49;9.07;;;3.05;;
48161;SDS011;33950;48.154;16.316;2023-06-01T01:21:39;8.60;;;2.83;;
48161;SDS011;33950;48.154;16.316;2023-06-01T01:24:35;7.95;;;2.63;;
48161;SDS011;33950;48.154;16.316;2023-06-01T01:27:33;13.90;;;3.58;;
48161;SDS011;33950;48.154;16.316;2023-06-01T01:30:26;9.10;;;3.10;;
48161;SDS011;33950;48.154;16.316;2023-06-01T01:33:13;7.78;;;3.10;;
48161;SDS011;33950;48.154;16.316;2023-06-01T01:36:00;10.60;;;3.45;;
48161;SDS011;33950;48.154;16.316;2023-06-01T01:38:47;5.93;;;3.08;;
48161;SDS011;33950;48.154;16.316;2023-06-01T01:41:33;7.63;;;2.70;;
48161;SDS011;33950;48.154;16.316;2023-06-01T01:44:19;11.27;;;3.08;;
48161;SDS011;33950;48.154;16.316;2023-06-01T01:47:07;9.63;;;2.88;;
48161;SDS011;33950;48.154;16.316;2023-06-01T01:50:01;8.93;;;2.90;;
48161;SDS011;33950;48.154;16.316;2023-06-01T01:55:39;7.65;;;2.80;;
48161;SDS011;33950;48.154;16.316;2023-06-01T01:58:25;9.82;;;3.25;;
48161;SDS011;33950;48.154;16.316;2023-06-01T02:01:12;10.32;;;3.67;;
48161;SDS011;33950;48.154;16.316;2023-06-01T02:04:01;7.85;;;3.25;;
48161;SDS011;33950;48.154;16.316;2023-06-01T02:06:48;9.07;;;2.97;;
48161;SDS011;33950;48.154;16.316;2023-06-01T02:09:34;8.93;;;3.35;;
48161;SDS011;33950;48.154;16.316;2023-06-01T02:12:21;7.82;;;3.83;;
48161;SDS011;33950;48.154;16.316;2023-06-01T02:15:08;10.05;;;3.80;;
48161;SDS011;33950;48.154;16.316;2023-06-01T02:17:54;7.25;;;3.10;;
48161;SDS011;33950;48.154;16.316;2023-06-01T02:20:42;9.30;;;3.30;;
48161;SDS011;33950;48.154;16.316;2023-06-01T02:23:28;6.22;;;2.63;;
48161;SDS011;33950;48.154;16.316;2023-06-01T02:26:14;9.23;;;3.30;;
48161;SDS011;33950;48.154;16.316;2023-06-01T02:29:01;10.55;;;3.85;;
48161;SDS011;33950;48.154;16.316;2023-06-01T02:31:50;10.70;;;3.75;;
48161;SDS011;33950;48.154;16.316;2023-06-01T02:34:36;7.38;;;3.30;;
48161;SDS011;33950;48.154;16.316;2023-06-01T02:37:24;6.63;;;3.20;;
48161;SDS011;33950;48.154;16.316;2023-06-01T02:40:10;12.00;;;3.67;;
48161;SDS011;33950;48.154;16.316;2023-06-01T02:42:56;9.30;;;3.35;;
48161;SDS011;33950;48.154;16.316;2023-06-01T02:45:42;12.20;;;3.53;;
48161;SDS011;33950;48.154;16.316;2023-06-01T02:48:28;10.07;;;3.17;;
48161;SDS011;33950;48.154;16.316;2023-06-01T02:51:15;11.60;;;3.45;;
48161;SDS011;33950;48.154;16.316;2023-06-01T02:54:02;9.98;;;3.45;;
48161;SDS011;33950;48.154;16.316;2023-06-01T02:56:49;5.78;;;3.60;;
48161;SDS011;33950;48.154;16.316;2023-06-01T02:59:35;8.15;;;3.38;;
48161;SDS011;33950;48.154;16.316;2023-06-01T03:02:21;9.05;;;3.40;;
48161;SDS011;33950;48.154;16.316;2023-06-01T03:05:08;12.02;;;3.10;;
48161;SDS011;33950;48.154;16.316;2023-06-01T03:07:55;7.97;;;3.15;;
48161;SDS011;33950;48.154;16.316;2023-06-01T03:10:42;9.75;;;3.55;;
48161;SDS011;33950;48.154;16.316;2023-06-01T03:13:29;8.27;;;3.38;;
48161;SDS011;33950;48.154;16.316;2023-06-01T03:16:15;6.63;;;3.03;;
48161;SDS011;33950;48.154;16.316;2023-06-01T03:19:02;9.77;;;3.33;;
48161;SDS011;33950;48.154;16.316;2023-06-01T03:21:48;6.82;;;3.20;;
48161;SDS011;33950;48.154;16.316;2023-06-01T03:24:34;11.57;;;3.33;;
48161;SDS011;33950;48.154;16.316;2023-06-01T03:27:23;7.80;;;3.58;;
48161;SDS011;33950;48.154;16.316;2023-06-01T03:30:09;8.00;;;3.20;;
48161;SDS011;33950;48.154;16.316;2023-06-01T03:32:56;6.60;;;3.10;;
48161;SDS011;33950;48.154;16.316;2023-06-01T03:35:42;9.25;;;3.28;;
48161;SDS011;33950;48.154;16.316;2023-06-01T03:38:29;11.20;;;3.67;;
48161;SDS011;33950;48.154;16.316;2023-06-01T03:41:15;7.00;;;3.05;;
48161;SDS011;33950;48.154;16.316;2023-06-01T03:44:03;6.07;;;3.42;;
48161;SDS011;33950;48.154;16.316;2023-06-01T03:46:49;6.15;;;2.70;;
48161;SDS011;33950;48.154;16.316;2023-06-01T03:49:35;11.65;;;4.10;;
48161;SDS011;33950;48.154;16.316;2023-06-01T03:52:21;8.52;;;3.22;;
48161;SDS011;33950;48.154;16.316;2023-06-01T03:55:08;12.10;;;3.15;;
48161;SDS011;33950;48.154;16.316;2023-06-01T03:57:55;8.18;;;2.85;;
48161;SDS011;33950;48.154;16.316;2023-06-01T04:00:43;6.90;;;3.22;;
48161;SDS011;33950;48.154;16.316;2023-06-01T04:03:31;7.28;;;3.17;;
48161;SDS011;33950;48.154;16.316;2023-06-01T04:06:18;6.82;;;2.80;;
48161;SDS011;33950;48.154;16.316;2023-06-01T04:09:04;4.65;;;2.83;;
48161;SDS011;33950;48.154;16.316;2023-06-01T04:11:52;10.60;;;3.35;;
48161;SDS011;33950;48.154;16.316;2023-06-01T04:14:38;8.88;;;3.38;;
48161;SDS011;33950;48.154;16.316;2023-06-01T04:17:26;6.75;;;3.22;;
48161;SDS011;33950;48.154;16.316;2023-06-01T04:20:13;8.10;;;3.05;;
48161;SDS011;33950;48.154;16.316;2023-06-01T04:23:01;10.27;;;3.28;;
48161;SDS011;33950;48.154;16.316;2023-06-01T04:25:47;8.85;;;3.45;;
48161;SDS011;33950;48.154;16.316;2023-06-01T04:28:36;10.10;;;4.03;;
48161;SDS011;33950;48.154;16.316;2023-06-01T04:34:16;11.30;;;3.92;;
48161;SDS011;33950;48.154;16.316;2023-06-01T04:37:03;11.15;;;3.60;;
48161;SDS011;33950;48.154;16.316;2023-06-01T04:39:50;6.70;;;3.05;;
48161;SDS011;33950;48.154;16.316;2023-06-01T04:42:37;6.68;;;2.78;;
48161;SDS011;33950;48.154;16.316;2023-06-01T04:45:26;4.93;;;2.90;;
48161;SDS011;33950;48.154;16.316;2023-06-01T04:48:16;13.93;;;3.33;;
48161;SDS011;33950;48.154;16.316;2023-06-01T04:51:06;10.20;;;3.42;;
48161;SDS011;33950;48.154;16.316;2023-06-01T04:53:53;9.43;;;3.28;;
48161;SDS011;33950;48.154;16.316;2023-06-01T04:56:39;11.65;;;4.03;;
48161;SDS011;33950;48.154;16.316;2023-06-01T04:59:26;16.50;;;5.15;;
48161;SDS011;33950;48.154;16.316;2023-06-01T05:02:12;12.30;;;3.53;;
48161;SDS011;33950;48.154;16.316;2023-06-01T05:04:58;8.48;;;3.42;;
48161;SDS011;33950;48.154;16.316;2023-06-01T05:07:46;12.07;;;3.22;;
48161;SDS011;33950;48.154;16.316;2023-06-01T05:10:32;9.30;;;3.75;;
48161;SDS011;33950;48.154;16.316;2023-06-01T05:13:19;7.65;;;3.60;;
48161;SDS011;33950;48.154;16.316;2023-06-01T05:16:05;4.85;;;2.42;;
48161;SDS011;33950;48.154;16.316;2023-06-01T05:18:53;9.73;;;3.00;;
48161;SDS011;33950;48.154;16.316;2023-06-01T05:21:41;11.98;;;2.90;;
48161;SDS011;33950;48.154;16.316;2023-06-01T05:24:29;14.68;;;4.72;;
48161;SDS011;33950;48.154;16.316;2023-06-01T05:27:15;8.80;;;3.55;;
48161;SDS011;33950;48.154;16.316;2023-06-01T05:30:01;14.85;;;5.80;;
48161;SDS011;33950;48.154;16.316;2023-06-01T05:32:48;13.88;;;6.60;;
48161;SDS011;33950;48.154;16.316;2023-06-01T05:35:34;21.40;;;8.80;;
48161;SDS011;33950;48.154;16.316;2023-06-01T05:38:21;23.60;;;9.55;;
48161;SDS011;33950;48.154;16.316;2023-06-01T05:41:08;21.77;;;8.88;;
48161;SDS011;33950;48.154;16.316;2023-06-01T05:43:55;23.25;;;8.23;;
48161;SDS011;33950;48.154;16.316;2023-06-01T05:46:41;14.57;;;6.30;;
48161;SDS011;33950;48.154;16.316;2023-06-01T05:49:27;36.72;;;8.30;;
48161;SDS011;33950;48.154;16.316;2023-06-01T05:52:17;19.27;;;6.57;;
48161;SDS011;33950;48.154;16.316;2023-06-01T05:55:03;19.80;;;7.00;;
48161;SDS011;33950;48.154;16.316;2023-06-01T05:57:51;14.50;;;5.60;;
48161;SDS011;33950;48.154;16.316;2023-06-01T06:00:37;17.98;;;5.63;;
48161;SDS011;33950;48.154;16.316;2023-06-01T06:03:23;14.43;;;6.95;;
48161;SDS011;33950;48.154;16.316;2023-06-01T06:06:10;16.23;;;6.68;;
48161;SDS011;33950;48.154;16.316;2023-06-01T06:08:57;20.83;;;6.03;;
48161;SDS011;33950;48.154;16.316;2023-06-01T06:11:43;17.80;;;5.85;;
48161;SDS011;33950;48.154;16.316;2023-06-01T06:14:31;12.40;;;5.45;;
48161;SDS011;33950;48.154;16.316;2023-06-01T06:17:17;12.27;;;5.80;;
48161;SDS011;33950;48.154;16.316;2023-06-01T06:20:03;15.18;;;5.68;;
48161;SDS011;33950;48.154;16.316;2023-06-01T06:22:52;19.55;;;7.03;;
48161;SDS011;33950;48.154;16.316;2023-06-01T06:25:39;21.95;;;6.15;;
48161;SDS011;33950;48.154;16.316;2023-06-01T06:28:28;14.60;;;6.18;;
48161;SDS011;33950;48.154;16.316;2023-06-01T06:31:15;12.73;;;5.60;;
48161;SDS011;33950;48.154;16.316;2023-06-01T06:34:02;19.20;;;5.55;;
48161;SDS011;33950;48.154;16.316;2023-06-01T06:36:48;11.77;;;4.68;;
48161;SDS011;33950;48.154;16.316;2023-06-01T06:39:34;11.77;;;4.60;;
48161;SDS011;33950;48.154;16.316;2023-06-01T06:42:22;12.00;;;4.18;;
48161;SDS011;33950;48.154;16.316;2023-06-01T06:45:09;14.55;;;4.93;;
48161;SDS011;33950;48.154;16.316;2023-06-01T06:47:57;8.40;;;4.00;;
48161;SDS011;33950;48.154;16.316;2023-06-01T06:50:43;12.65;;;3.67;;
48161;SDS011;33950;48.154;16.316;2023-06-01T06:53:30;9.98;;;3.80;;
48161;SDS011;33950;48.154;16.316;2023-06-01T06:56:16;10.05;;;3.60;;
48161;SDS011;33950;48.154;16.316;2023-06-01T06:59:02;13.02;;;3.63;;
48161;SDS011;33950;48.154;16.316;2023-06-01T07:01:49;16.13;;;3.58;;
48161;SDS011;33950;48.154;16.316;2023-06-01T07:04:37;13.35;;;4.07;;
48161;SDS011;33950;48.154;16.316;2023-06-01T07:07:24;8.63;;;3.50;;
48161;SDS011;33950;48.154;16.316;2023-06-01T07:10:11;14.40;;;4.55;;
48161;SDS011;33950;48.154;16.316;2023-06-01T07:12:57;9.80;;;3.97;;
48161;SDS011;33950;48.154;16.316;2023-06-01T07:15:43;15.98;;;3.97;;
48161;SDS011;33950;48.154;16.316;2023-06-01T07:18:29;13.73;;;3.67;;
48161;SDS011;33950;48.154;16.316;2023-06-01T07:21:17;18.20;;;3.60;;
48161;SDS011;33950;48.154;16.316;2023-06-01T07:24:03;9.77;;;3.55;;
48161;SDS011;33950;48.154;16.316;2023-06-01T07:26:50;7.25;;;3.33;;
48161;SDS011;33950;48.154;16.316;2023-06-01T07:29:36;17.30;;;4.40;;
48161;SDS011;33950;48.154;16.316;2023-06-01T07:32:23;13.57;;;3.60;;
48161;SDS011;33950;48.154;16.316;2023-06-01T07:35:10;11.60;;;4.38;;
48161;SDS011;33950;48.154;16.316;2023-06-01T07:37:58;11.63;;;4.05;;
48161;SDS011;33950;48.154;16.316;2023-06-01T07:40:45;12.07;;;4.13;;
48161;SDS011;33950;48.154;16.316;2023-06-01T07:43:32;11.90;;;4.28;;
48161;SDS011;33950;48.154;16.316;2023-06-01T07:46:21;13.48;;;4.10;;
48161;SDS011;33950;48.154;16.316;2023-06-01T07:49:07;9.27;;;4.75;;
48161;SDS011;33950;48.154;16.316;2023-06-01T07:51:58;13.68;;;4.20;;
48161;SDS011;33950;48.154;16.316;2023-06-01T07:54:46;13.90;;;3.55;;
48161;SDS011;33950;48.154;16.316;2023-06-01T07:57:33;20.27;;;4.40;;
48161;SDS011;33950;48.154;16.316;2023-06-01T08:00:19;13.95;;;4.35;;
48161;SDS011;33950;48.154;16.316;2023-06-01T08:03:05;12.00;;;3.80;;
48161;SDS011;33950;48.154;16.316;2023-06-01T08:05:52;15.90;;;4.15;;
48161;SDS011;33950;48.154;16.316;2023-06-01T08:08:42;6.53;;;2.85;;
48161;SDS011;33950;48.154;16.316;2023-06-01T08:11:33;12.50;;;3.60;;
48161;SDS011;33950;48.154;16.316;2023-06-01T08:14:19;8.65;;;2.72;;
48161;SDS011;33950;48.154;16.316;2023-06-01T08:17:05;8.57;;;3.45;;
48161;SDS011;33950;48.154;16.316;2023-06-01T08:19:52;11.02;;;3.92;;
48161;SDS011;33950;48.154;16.316;2023-06-01T08:22:39;11.82;;;4.00;;
48161;SDS011;33950;48.154;16.316;2023-06-01T08:25:26;12.10;;;3.88;;
48161;SDS011;33950;48.154;16.316;2023-06-01T08:28:13;8.73;;;3.28;;
48161;SDS011;33950;48.154;16.316;2023-06-01T08:30:59;11.85;;;2.95;;
48161;SDS011;33950;48.154;16.316;2023-06-01T08:33:46;19.42;;;3.95;;
48161;SDS011;33950;48.154;16.316;2023-06-01T08:36:33;7.13;;;2.97;;
48161;SDS011;33950;48.154;16.316;2023-06-01T08:39:19;17.60;;;3.92;;
48161;SDS011;33950;48.154;16.316;2023-06-01T08:42:07;14.88;;;4.00;;
48161;SDS011;33950;48.154;16.316;2023-06-01T08:44:57;6.50;;;3.40;;
48161;SDS011;33950;48.154;16.316;2023-06-01T08:47:43;13.50;;;3.42;;
48161;SDS011;33950;48.154;16.316;2023-06-01T08:50:32;7.00;;;3.20;;
48161;SDS011;33950;48.154;16.316;2023-06-01T08:53:19;9.38;;;3.17;;
48161;SDS011;33950;48.154;16.316;2023-06-01T08:56:07;6.57;;;3.00;;
48161;SDS011;33950;48.154;16.316;2023-06-01T08:58:53;5.15;;;3.15;;
48161;SDS011;33950;48.154;16.316;2023-06-01T09:01:42;6.22;;;3.10;;
48161;SDS011;33950;48.154;16.316;2023-06-01T09:04:28;12.27;;;3.88;;
48161;SDS011;33950;48.154;16.316;2023-06-01T09:07:19;7.70;;;2.72;;
48161;SDS011;33950;48.154;16.316;2023-06-01T09:10:06;5.57;;;2.63;;
48161;SDS011;33950;48.154;16.316;2023-06-01T09:12:53;7.80;;;2.50;;
48161;SDS011;33950;48.154;16.316;2023-06-01T09:15:49;11.05;;;2.70;;
48161;SDS011;33950;48.154;16.316;2023-06-01T09:18:38;10.18;;;2.25;;
48161;SDS011;33950;48.154;16.316;2023-06-01T09:21:37;8.50;;;2.42;;
48161;SDS011;33950;48.154;16.316;2023-06-01T09:24:23;5.95;;;2.42;;
48161;SDS011;33950;48.154;16.316;2023-06-01T09:27:10;5.78;;;2.53;;
48161;SDS011;33950;48.154;16.316;2023-06-01T09:29:56;8.68;;;2.60;;
48161;SDS011;33950;48.154;16.316;2023-06-01T09:32:47;5.22;;;3.22;;
48161;SDS011;33950;48.154;16.316;2023-06-01T09:35:41;8.75;;;2.83;;
48161;SDS011;33950;48.154;16.316;2023-06-01T09:38:28;11.07;;;2.75;;
48161;SDS011;33950;48.154;16.316;2023-06-01T09:41:16;6.13;;;2.33;;
48161;SDS011;33950;48.154;16.316;2023-06-01T09:44:02;11.80;;;3.30;;
48161;SDS011;33950;48.154;16.316;2023-06-01T09:46:48;9.20;;;2.83;;
48161;SDS011;33950;48.154;16.316;2023-06-01T09:49:37;7.70;;;3.10;;
48161;SDS011;33950;48.154;16.316;2023-06-01T09:52:25;8.02;;;2.60;;
48161;SDS011;33950;48.154;16.316;2023-06-01T09:55:12;7.25;;;2.80;;
48161;SDS011;33950;48.154;16.316;2023-06-01T10:01:05;11.98;;;2.78;;
48161;SDS011;33950;48.154;16.316;2023-06-01T10:03:56;7.15;;;3.05;;
48161;SDS011;33950;48.154;16.316;2023-06-01T10:06:45;17.40;;;3.22;;
48161;SDS011;33950;48.154;16.316;2023-06-01T10:09:33;9.13;;;3.05;;
48161;SDS011;33950;48.154;16.316;2023-06-01T10:12:24;15.88;;;3.90;;
48161;SDS011;33950;48.154;16.316;2023-06-01T10:15:10;16.10;;;3.30;;
48161;SDS011;33950;48.154;16.316;2023-06-01T10:17:57;8.80;;;3.13;;
48161;SDS011;33950;48.154;16.316;2023-06-01T10:20:43;10.55;;;3.33;;
48161;SDS011;33950;48.154;16.316;2023-06-01T10:23:30;10.75;;;3.28;;
48161;SDS011;33950;48.154;16.316;2023-06-01T10:26:17;12.73;;;3.10;;
48161;SDS011;33950;48.154;16.316;2023-06-01T10:29:05;4.95;;;3.03;;
48161;SDS011;33950;48.154;16.316;2023-06-01T10:31:52;7.05;;;3.20;;
48161;SDS011;33950;48.154;16.316;2023-06-01T10:34:39;13.27;;;2.78;;
48161;SDS011;33950;48.154;16.316;2023-06-01T10:37:26;10.77;;;3.72;;
48161;SDS011;33950;48.154;16.316;2023-06-01T10:40:19;3.67;;;2.40;;
48161;SDS011;33950;48.154;16.316;2023-06-01T10:43:08;10.45;;;3.50;;
48161;SDS011;33950;48.154;16.316;2023-06-01T10:46:36;11.30;;;3.05;;
48161;SDS011;33950;48.154;16.316;2023-06-01T10:49:41;13.27;;;3.13;;
48161;SDS011;33950;48.154;16.316;2023-06-01T10:52:53;7.05;;;3.63;;
48161;SDS011;33950;48.154;16.316;2023-06-01T10:55:40;16.98;;;3.30;;
48161;SDS011;33950;48.154;16.316;2023-06-01T10:58:27;8.68;;;2.85;;
48161;SDS011;33950;48.154;16.316;2023-06-01T11:01:18;9.63;;;2.58;;
48161;SDS011;33950;48.154;16.316;2023-06-01T11:04:05;6.53;;;3.10;;
48161;SDS011;33950;48.154;16.316;2023-06-01T11:06:52;10.32;;;3.20;;
48161;SDS011;33950;48.154;16.316;2023-06-01T11:09:43;11.27;;;3.15;;
48161;SDS011;33950;48.154;16.316;2023-06-01T11:19:17;4.50;;;2.55;;
48161;SDS011;33950;48.154;16.316;2023-06-01T11:22:06;12.00;;;2.90;;
48161;SDS011;33950;48.154;16.316;2023-06-01T11:24:54;8.65;;;3.10;;
48161;SDS011;33950;48.154;16.316;2023-06-01T11:27:44;9.52;;;3.08;;
48161;SDS011;33950;48.154;16.316;2023-06-01T11:30:31;4.70;;;2.90;;
48161;SDS011;33950;48.154;16.316;2023-06-01T11:33:22;7.15;;;3.28;;
48161;SDS011;33950;48.154;16.316;2023-06-01T11:36:09;7.82;;;3.10;;
48161;SDS011;33950;48.154;16.316;2023-06-01T11:38:55;9.88;;;3.70;;
48161;SDS011;33950;48.154;16.316;2023-06-01T11:41:42;10.35;;;3.08;;
48161;SDS011;33950;48.154;16.316;2023-06-01T11:44:29;7.72;;;3.13;;
48161;SDS011;33950;48.154;16.316;2023-06-01T11:47:16;9.63;;;3.38;;
48161;SDS011;33950;48.154;16.316;2023-06-01T11:50:04;13.13;;;3.42;;
48161;SDS011;33950;48.154;16.316;2023-06-01T11:52:51;13.02;;;3.78;;
48161;SDS011;33950;48.154;16.316;2023-06-01T11:55:47;14.55;;;3.88;;
48161;SDS011;33950;48.154;16.316;2023-06-01T11:58:34;5.45;;;3.55;;
48161;SDS011;33950;48.154;16.316;2023-06-01T12:01:20;7.25;;;4.07;;
48161;SDS011;33950;48.154;16.316;2023-06-01T12:04:06;16.45;;;3.28;;
48161;SDS011;33950;48.154;16.316;2023-06-01T12:07:04;16.00;;;3.67;;
48161;SDS011;33950;48.154;16.316;2023-06-01T12:09:51;5.55;;;2.67;;
48161;SDS011;33950;48.154;16.316;2023-06-01T12:12:39;7.18;;;3.60;;
48161;SDS011;33950;48.154;16.316;2023-06-01T12:15:26;11.55;;;4.03;;
48161;SDS011;33950;48.154;16.316;2023-06-01T12:18:13;14.43;;;3.53;;
48161;SDS011;33950;48.154;16.316;2023-06-01T12:20:59;9.25;;;3.25;;
48161;SDS011;33950;48.154;16.316;2023-06-01T12:23:56;11.13;;;3.67;;
48161;SDS011;33950;48.154;16.316;2023-06-01T12:26:42;6.35;;;3.20;;
48161;SDS011;33950;48.154;16.316;2023-06-01T12:29:38;11.73;;;3.40;;
48161;SDS011;33950;48.154;16.316;2023-06-01T12:32:37;11.40;;;3.50;;
48161;SDS011;33950;48.154;16.316;2023-06-01T12:35:23;8.25;;;3.33;;
48161;SDS011;33950;48.154;16.316;2023-06-01T12:38:09;8.60;;;3.55;;
48161;SDS011;33950;48.154;16.316;2023-06-01T12:41:06;10.85;;;3.83;;
48161;SDS011;33950;48.154;16.316;2023-06-01T12:43:54;13.75;;;3.38;;
48161;SDS011;33950;48.154;16.316;2023-06-01T12:46:40;12.35;;;4.32;;
48161;SDS011;33950;48.154;16.316;2023-06-01T12:49:27;8.85;;;4.10;;
48161;SDS011;33950;48.154;16.316;2023-06-01T12:52:14;8.30;;;3.72;;
48161;SDS011;33950;48.154;16.316;2023-06-01T12:55:00;8.07;;;4.50;;
48161;SDS011;33950;48.154;16.316;2023-06-01T12:57:53;6.97;;;3.47;;
48161;SDS011;33950;48.154;16.316;2023-06-01T13:00:40;12.73;;;3.40;;
48161;SDS011;33950;48.154;16.316;2023-06-01T13:03:26;4.53;;;3.25;;
48161;SDS011;33950;48.154;16.316;2023-06-01T13:06:12;8.57;;;3.97;;
48161;SDS011;33950;48.154;16.316;2023-06-01T13:08:58;8.07;;;3.67;;
48161;SDS011;33950;48.154;16.316;2023-06-01T13:11:44;19.92;;;3.92;;
48161;SDS011;33950;48.154;16.316;2023-06-01T13:14:31;11.43;;;4.40;;
48161;SDS011;33950;48.154;16.316;2023-06-01T13:17:18;10.20;;;3.47;;
48161;SDS011;33950;48.154;16.316;2023-06-01T13:20:04;8.43;;;3.45;;
48161;SDS011;33950;48.154;16.316;2023-06-01T13:22:52;9.25;;;3.58;;
48161;SDS011;33950;48.154;16.316;2023-06-01T13:25:39;16.63;;;3.80;;
48161;SDS011;33950;48.154;16.316;2023-06-01T13:28:25;12.50;;;3.83;;
48161;SDS011;33950;48.154;16.316;2023-06-01T13:31:13;10.55;;;3.33;;
48161;SDS011;33950;48.154;16.316;2023-06-01T13:33:59;11.27;;;4.40;;
48161;SDS011;33950;48.154;16.316;2023-06-01T13:36:45;9.85;;;3.40;;
48161;SDS011;33950;48.154;16.316;2023-06-01T13:39:31;8.68;;;3.90;;
48161;SDS011;33950;48.154;16.316;2023-06-01T13:42:17;12.40;;;4.53;;
48161;SDS011;33950;48.154;16.316;2023-06-01T13:45:04;10.23;;;3.95;;
48161;SDS011;33950;48.154;16.316;2023-06-01T13:47:52;18.25;;;3.55;;
48161;SDS011;33950;48.154;16.316;2023-06-01T13:50:40;5.20;;;3.30;;
48161;SDS011;33950;48.154;16.316;2023-06-01T13:53:26;11.90;;;4.03;;
48161;SDS011;33950;48.154;16.316;2023-06-01T13:56:13;8.38;;;3.55;;
48161;SDS011;33950;48.154;16.316;2023-06-01T13:58:59;9.93;;;3.80;;
48161;SDS011;33950;48.154;16.316;2023-06-01T14:01:45;10.57;;;3.55;;
48161;SDS011;33950;48.154;16.316;2023-06-01T14:04:33;9.70;;;3.90;;
48161;SDS011;33950;48.154;16.316;2023-06-01T14:07:19;11.07;;;3.55;;
48161;SDS011;33950;48.154;16.316;2023-06-01T14:10:06;9.20;;;4.38;;
48161;SDS011;33950;48.154;16.316;2023-06-01T14:12:52;17.23;;;3.50;;
48161;SDS011;33950;48.154;16.316;2023-06-01T14:15:38;13.73;;;3.70;;
48161;SDS011;33950;48.154;16.316;2023-06-01T14:18:25;6.85;;;4.07;;
48161;SDS011;33950;48.154;16.316;2023-06-01T14:21:12;13.63;;;4.35;;
48161;SDS011;33950;48.154;16.316;2023-06-01T14:23:59;10.63;;;3.85;;
48161;SDS011;33950;48.154;16.316;2023-06-01T14:26:45;14.45;;;3.97;;
48161;SDS011;33950;48.154;16.316;2023-06-01T14:29:31;7.70;;;3.50;;
48161;SDS011;33950;48.154;16.316;2023-06-01T14:32:17;7.65;;;4.00;;
48161;SDS011;33950;48.154;16.316;2023-06-01T14:35:03;10.45;;;4.15;;
48161;SDS011;33950;48.154;16.316;2023-06-01T14:37:51;4.93;;;3.28;;
48161;SDS011;33950;48.154;16.316;2023-06-01T14:40:38;10.02;;;3.90;;
48161;SDS011;33950;48.154;16.316;2023-06-01T14:43:24;9.35;;;3.25;;
48161;SDS011;33950;48.154;16.316;2023-06-01T14:46:10;10.95;;;3.83;;
48161;SDS011;33950;48.154;16.316;2023-06-01T14:48:56;8.48;;;3.83;;
48161;SDS011;33950;48.154;16.316;2023-06-01T14:51:45;10.43;;;4.05;;
48161;SDS011;33950;48.154;16.316;2023-06-01T14:54:32;8.43;;;3.85;;
48161;SDS011;33950;48.154;16.316;2023-06-01T14:57:18;11.98;;;3.70;;
48161;SDS011;33950;48.154;16.316;2023-06-01T15:00:06;8.25;;;4.93;;
48161;SDS011;33950;48.154;16.316;2023-06-01T15:02:54;8.13;;;4.20;;
48161;SDS011;33950;48.154;16.316;2023-06-01T15:05:40;6.45;;;3.75;;
48161;SDS011;33950;48.154;16.316;2023-06-01T15:08:26;13.35;;;4.32;;
48161;SDS011;33950;48.154;16.316;2023-06-01T15:11:15;9.90;;;3.47;;
48161;SDS011;33950;48.154;16.316;2023-06-01T15:14:01;6.88;;;3.80;;
48161;SDS011;33950;48.154;16.316;2023-06-01T15:16:48;7.93;;;4.35;;
48161;SDS011;33950;48.154;16.316;2023-06-01T15:19:34;14.35;;;4.28;;
48161;SDS011;33950;48.154;16.316;2023-06-01T15:22:20;14.30;;;4.45;;
48161;SDS011;33950;48.154;16.316;2023-06-01T15:25:07;9.50;;;5.03;;
48161;SDS011;33950;48.154;16.316;2023-06-01T15:27:54;13.90;;;4.28;;
48161;SDS011;33950;48.154;16.316;2023-06-01T15:30:40;11.30;;;4.30;;
48161;SDS011;33950;48.154;16.316;2023-06-01T15:33:26;10.18;;;3.55;;
48161;SDS011;33950;48.154;16.316;2023-06-01T15:36:13;13.02;;;3.85;;
48161;SDS011;33950;48.154;16.316;2023-06-01T15:38:59;7.97;;;3.72;;
48161;SDS011;33950;48.154;16.316;2023-06-01T15:41:46;7.68;;;4.22;;
48161;SDS011;33950;48.154;16.316;2023-06-01T15:44:33;10.32;;;4.32;;
48161;SDS011;33950;48.154;16.316;2023-06-01T15:47:25;8.93;;;4.35;;
48161;SDS011;33950;48.154;16.316;2023-06-01T15:50:11;8.93;;;4.10;;
48161;SDS011;33950;48.154;16.316;2023-06-01T15:52:57;11.00;;;4.07;;
48161;SDS011;33950;48.154;16.316;2023-06-01T15:55:43;10.15;;;3.83;;
48161;SDS011;33950;48.154;16.316;2023-06-01T15:58:29;10.63;;;4.85;;
48161;SDS011;33950;48.154;16.316;2023-06-01T16:01:17;11.07;;;7.38;;
48161;SDS011;33950;48.154;16.316;2023-06-01T16:04:03;13.65;;;4.47;;
48161;SDS011;33950;48.154;16.316;2023-06-01T16:06:49;7.15;;;3.42;;
48161;SDS011;33950;48.154;16.316;2023-06-01T16:09:35;10.50;;;3.88;;
48161;SDS011;33950;48.154;16.316;2023-06-01T16:12:21;8.07;;;4.28;;
48161;SDS011;33950;48.154;16.316;2023-06-01T16:15:08;7.82;;;3.75;;
48161;SDS011;33950;48.154;16.316;2023-06-01T16:17:56;9.00;;;4.40;;
48161;SDS011;33950;48.154;16.316;2023-06-01T16:20:42;11.00;;;4.28;;
48161;SDS011;33950;48.154;16.316;2023-06-01T16:23:28;9.15;;;4.20;;
48161;SDS011;33950;48.154;16.316;2023-06-01T16:26:14;8.23;;;4.38;;
48161;SDS011;33950;48.154;16.316;2023-06-01T16:29:01;10.18;;;4.50;;
48161;SDS011;33950;48.154;16.316;2023-06-01T16:31:47;7.28;;;4.05;;
48161;SDS011;33950;48.154;16.316;2023-06-01T16:34:36;12.05;;;4.47;;
48161;SDS011;33950;48.154;16.316;2023-06-01T16:37:22;7.68;;;4.28;;
48161;SDS011;33950;48.154;16.316;2023-06-01T16:40:08;9.65;;;3.88;;
48161;SDS011;33950;48.154;16.316;2023-06-01T16:42:55;7.50;;;4.00;;